Time;durP1;ratioP1;P1;durP2;ratioP2;P2;SDS_P1;SDS_P2;PMS_P1;PMS_P2;Temp;Humidity;BMP_temperature;BMP_pressure;BME280_temperature;BME280_humidity;BME280_pressure;Samples;Min_cycle;Max_cycle;Signal;HPM_P1;HPM_P2
2024/01/09 00:02:23;;;;;;;5.07;1.45;;;;;;;;;;4949112;28;20043;-82
2024/01/09 00:04:53;;;;;;;6.50;1.58;;;;;;;;;;4942793;29;20054;-84
2024/01/09 00:07:23;;;;;;;6.15;1.35;;;;;;;;;;4945974;28;20047;-83
2024/01/09 00:09:54;;;;;;;2.80;1.20;;;;;;;;;;4971568;28;20050;-83
2024/01/09 00:12:24;;;;;;;4.63;1.73;;;;;;;;;;4975385;28;20050;-83
2024/01/09 00:14:54;;;;;;;3.65;1.20;;;;;;;;;;4957774;28;20507;-82
2024/01/09 00:17:28;;;;;;;6.97;1.65;;;;;;;;;;4975302;28;20141;-83
2024/01/09 00:19:58;;;;;;;7.93;1.77;;;;;;;;;;4956957;28;20055;-83
2024/01/09 00:22:35;;;;;;;4.85;1.88;;;;;;;;;;4957169;28;20391;-84
2024/01/09 00:25:06;;;;;;;4.07;1.58;;;;;;;;;;4975196;28;20052;-83
2024/01/09 00:27:37;;;;;;;3.63;1.50;;;;;;;;;;4975032;28;20054;-84
2024/01/09 00:30:09;;;;;;;7.88;1.65;;;;;;;;;;4974913;28;20053;-84
2024/01/09 00:32:46;;;;;;;13.82;1.83;;;;;;;;;;4956734;28;20065;-84
2024/01/09 00:35:19;;;;;;;3.30;1.27;;;;;;;;;;4941570;28;20047;-84
2024/01/09 00:37:49;;;;;;;;;;;;;;;;;;4957062;28;20058;-85
2024/01/09 00:40:20;;;;;;;7.63;1.90;;;;;;;;;;4941237;28;20308;-83
2024/01/09 00:42:51;;;;;;;11.10;4.10;;;;;;;;;;4974843;28;20043;-83
2024/01/09 00:45:22;;;;;;;3.72;1.70;;;;;;;;;;4974657;28;20062;-84
2024/01/09 00:47:53;;;;;;;8.50;2.80;;;;;;;;;;4956301;28;20050;-84
2024/01/09 00:50:26;;;;;;;7.72;2.70;;;;;;;;;;4946480;28;20430;-85
2024/01/09 00:52:57;;;;;;;9.40;3.67;;;;;;;;;;4965127;28;20042;-84
2024/01/09 00:55:27;;;;;;;4.40;2.30;;;;;;;;;;4941805;29;20081;-84
2024/01/09 00:57:58;;;;;;;8.77;3.17;;;;;;;;;;4937603;29;20047;-84
2024/01/09 01:00:30;;;;;;;7.72;3.60;;;;;;;;;;4937930;29;20494;-83
2024/01/09 01:03:00;;;;;;;6.32;3.38;;;;;;;;;;4954683;29;20044;-84
2024/01/09 01:05:33;;;;;;;7.55;3.25;;;;;;;;;;4937701;29;20070;-83
2024/01/09 01:08:03;;;;;;;8.30;3.35;;;;;;;;;;4921852;29;20058;-84
2024/01/09 01:10:38;;;;;;;10.02;3.42;;;;;;;;;;4937262;29;20058;-83
2024/01/09 01:13:08;;;;;;;6.32;2.95;;;;;;;;;;4937494;29;20063;-84
2024/01/09 01:15:40;;;;;;;11.43;2.72;;;;;;;;;;4937479;29;20055;-83
2024/01/09 01:18:09;;;;;;;10.38;2.45;;;;;;;;;;4936681;29;20474;-84
2024/01/09 01:20:40;;;;;;;9.27;2.45;;;;;;;;;;4918663;29;20063;-84
2024/01/09 01:23:10;;;;;;;7.30;2.08;;;;;;;;;;4918678;29;20060;-84
2024/01/09 01:25:42;;;;;;;9.18;2.30;;;;;;;;;;4929667;29;20066;-84
2024/01/09 01:28:12;;;;;;;6.35;2.45;;;;;;;;;;4936799;29;20044;-83
2024/01/09 01:30:43;;;;;;;8.27;2.92;;;;;;;;;;4936289;29;20486;-85
2024/01/09 01:33:13;;;;;;;6.57;2.85;;;;;;;;;;4935449;29;20044;-84
2024/01/09 01:35:44;;;;;;;7.60;3.22;;;;;;;;;;4934887;29;20048;-83
2024/01/09 01:38:14;;;;;;;9.85;3.22;;;;;;;;;;4935023;29;20055;-83
2024/01/09 01:40:45;;;;;;;9.93;3.42;;;;;;;;;;4920892;29;20054;-84
2024/01/09 01:43:15;;;;;;;8.77;3.15;;;;;;;;;;4936993;29;20062;-83
2024/01/09 01:45:47;;;;;;;10.38;3.47;;;;;;;;;;4936633;29;20047;-83
2024/01/09 01:48:18;;;;;;;10.27;3.25;;;;;;;;;;4936933;29;20047;-83
2024/01/09 01:50:50;;;;;;;14.02;2.78;;;;;;;;;;4937654;29;20055;-83
2024/01/09 01:53:21;;;;;;;8.70;2.70;;;;;;;;;;4921625;29;20058;-84
2024/01/09 01:55:51;;;;;;;6.68;2.78;;;;;;;;;;4937783;29;20074;-84
2024/01/09 01:58:24;;;;;;;7.97;2.70;;;;;;;;;;4936610;29;20059;-84
2024/01/09 02:00:55;;;;;;;8.50;2.97;;;;;;;;;;4936949;29;20494;-84
2024/01/09 02:03:26;;;;;;;7.75;3.10;;;;;;;;;;4937500;29;20054;-84
2024/01/09 02:05:58;;;;;;;5.50;2.30;;;;;;;;;;4922304;29;20055;-84
2024/01/09 02:08:32;;;;;;;7.40;2.60;;;;;;;;;;4954696;29;20048;-83
2024/01/09 02:11:04;;;;;;;8.95;3.15;;;;;;;;;;4939196;29;20058;-83
2024/01/09 02:13:34;;;;;;;11.65;2.63;;;;;;;;;;4955868;29;20047;-84
2024/01/09 02:16:08;;;;;;;6.63;2.60;;;;;;;;;;4938543;29;20062;-84
2024/01/09 02:18:39;;;;;;;8.13;2.97;;;;;;;;;;4956578;29;20498;-84
2024/01/09 02:21:09;;;;;;;9.77;3.08;;;;;;;;;;4939884;29;20478;-84
2024/01/09 02:23:39;;;;;;;10.73;3.55;;;;;;;;;;4940390;29;20074;-83
2024/01/09 02:26:10;;;;;;;9.35;3.28;;;;;;;;;;4938727;29;20525;-84
2024/01/09 02:29:07;;;;;;;6.03;2.63;;;;;;;;;;4943821;29;20047;-84
2024/01/09 02:31:38;;;;;;;7.97;3.42;;;;;;;;;;4940426;29;20054;-83
2024/01/09 02:34:13;;;;;;;8.38;3.13;;;;;;;;;;4957859;29;20043;-83
2024/01/09 02:36:44;;;;;;;8.00;2.30;;;;;;;;;;4924103;29;20058;-86
2024/01/09 02:39:14;;;;;;;7.50;2.47;;;;;;;;;;4940524;29;20059;-84
2024/01/09 02:41:46;;;;;;;8.90;2.72;;;;;;;;;;4939107;29;20340;-84
2024/01/09 02:44:18;;;;;;;7.88;2.80;;;;;;;;;;4939659;29;20051;-84
2024/01/09 02:46:49;;;;;;;10.00;2.42;;;;;;;;;;4957725;29;20078;-84
2024/01/09 02:49:20;;;;;;;5.05;2.20;;;;;;;;;;4923889;29;20054;-84
2024/01/09 02:51:53;;;;;;;5.60;2.28;;;;;;;;;;4939184;29;20051;-83
2024/01/09 02:54:24;;;;;;;5.95;1.90;;;;;;;;;;4939093;29;20047;-83
2024/01/09 02:56:54;;;;;;;5.07;2.20;;;;;;;;;;4938050;29;20062;-83
2024/01/09 02:59:26;;;;;;;7.30;2.22;;;;;;;;;;4955088;29;20046;-84
2024/01/09 03:01:56;;;;;;;4.25;2.15;;;;;;;;;;4937968;29;20051;-84
2024/01/09 03:04:26;;;;;;;5.85;2.15;;;;;;;;;;4921793;29;20183;-85
2024/01/09 03:06:57;;;;;;;8.32;2.38;;;;;;;;;;4955255;29;20047;-84
2024/01/09 03:09:27;;;;;;;4.88;2.22;;;;;;;;;;4956040;29;20039;-84
2024/01/09 03:11:57;;;;;;;6.85;2.05;;;;;;;;;;4956885;29;20054;-84
2024/01/09 03:14:27;;;;;;;8.35;2.55;;;;;;;;;;4939679;29;20043;-84
2024/01/09 03:16:57;;;;;;;7.63;2.15;;;;;;;;;;4956965;29;20047;-85
2024/01/09 03:19:27;;;;;;;6.80;2.03;;;;;;;;;;4956243;29;20450;-84
2024/01/09 03:21:57;;;;;;;9.02;2.80;;;;;;;;;;4938785;28;20066;-84
2024/01/09 03:24:27;;;;;;;9.48;2.78;;;;;;;;;;4922658;29;20066;-84
2024/01/09 03:26:57;;;;;;;7.25;2.17;;;;;;;;;;4956451;29;20047;-83
2024/01/09 03:29:27;;;;;;;6.15;2.53;;;;;;;;;;4938442;29;20506;-84
2024/01/09 03:31:57;;;;;;;5.20;2.47;;;;;;;;;;4956996;29;20058;-84
2024/01/09 03:34:27;;;;;;;7.90;2.33;;;;;;;;;;4938973;29;20047;-83
2024/01/09 03:36:57;;;;;;;9.23;2.42;;;;;;;;;;4955805;29;20051;-84
2024/01/09 03:39:28;;;;;;;5.65;2.58;;;;;;;;;;4937653;29;20392;-84
2024/01/09 03:41:57;;;;;;;7.82;2.67;;;;;;;;;;4956389;29;20043;-83
2024/01/09 03:44:27;;;;;;;9.38;2.67;;;;;;;;;;4939376;29;20124;-82
2024/01/09 03:46:59;;;;;;;6.20;2.80;;;;;;;;;;4938259;29;20051;-83
2024/01/09 03:49:32;;;;;;;10.60;2.90;;;;;;;;;;4939700;29;20051;-83
2024/01/09 03:52:03;;;;;;;5.32;2.30;;;;;;;;;;4939553;29;20091;-83
2024/01/09 03:54:33;;;;;;;9.98;2.58;;;;;;;;;;4938083;29;20062;-82
2024/01/09 03:57:02;;;;;;;8.02;3.58;;;;;;;;;;4939227;29;20151;-83
2024/01/09 03:59:32;;;;;;;5.97;2.90;;;;;;;;;;4922693;29;20506;-82
2024/01/09 04:02:04;;;;;;;7.35;3.05;;;;;;;;;;4939140;29;20051;-83
2024/01/09 04:04:35;;;;;;;6.90;2.67;;;;;;;;;;4922794;29;20054;-83
2024/01/09 04:07:08;;;;;;;10.48;3.25;;;;;;;;;;4937983;29;20055;-84
2024/01/09 04:09:38;;;;;;;5.63;2.83;;;;;;;;;;4938229;29;20062;-83
2024/01/09 04:12:08;;;;;;;9.40;3.42;;;;;;;;;;4938922;29;20407;-83
2024/01/09 04:14:38;;;;;;;9.18;2.95;;;;;;;;;;4938077;29;20473;-83
2024/01/09 04:17:08;;;;;;;9.27;2.67;;;;;;;;;;4938957;29;20513;-84
2024/01/09 04:19:40;;;;;;;9.20;3.22;;;;;;;;;;4938428;29;20067;-84
2024/01/09 04:22:11;;;;;;;8.90;3.38;;;;;;;;;;4937642;29;20047;-84
2024/01/09 04:24:41;;;;;;;9.20;3.10;;;;;;;;;;4955978;29;20051;-84
2024/01/09 04:27:11;;;;;;;10.60;2.85;;;;;;;;;;4937100;29;20066;-83
2024/01/09 04:29:41;;;;;;;6.88;2.63;;;;;;;;;;4954969;29;20050;-83
2024/01/09 04:32:11;;;;;;;6.55;2.47;;;;;;;;;;4938659;29;20410;-83
2024/01/09 04:34:43;;;;;;;3.08;1.88;;;;;;;;;;4938721;29;20047;-82
2024/01/09 04:37:14;;;;;;;;;;;;;;;;;;4939267;29;20494;-83
2024/01/09 04:39:44;;;;;;;6.68;2.40;;;;;;;;;;4937437;29;19926;-83
2024/01/09 04:42:14;;;;;;;6.80;3.15;;;;;;;;;;4954782;29;20387;-82
2024/01/09 04:44:45;;;;;;;7.18;2.83;;;;;;;;;;4921475;29;20059;-83
2024/01/09 04:47:18;;;;;;;7.63;2.95;;;;;;;;;;4937349;29;20518;-82
2024/01/09 04:49:49;;;;;;;7.80;2.67;;;;;;;;;;4954948;29;20043;-84
2024/01/09 04:52:19;;;;;;;5.47;2.63;;;;;;;;;;4938180;29;20438;-83
2024/01/09 04:54:49;;;;;;;6.30;2.60;;;;;;;;;;4955490;29;20051;-84
2024/01/09 04:57:25;;;;;;;8.48;2.80;;;;;;;;;;4937032;29;20063;-84
2024/01/09 04:59:55;;;;;;;8.40;2.55;;;;;;;;;;4937814;29;20073;-84
2024/01/09 05:02:27;;;;;;;5.15;2.30;;;;;;;;;;4936844;29;20062;-84
2024/01/09 05:04:57;;;;;;;6.57;2.30;;;;;;;;;;4955066;29;20070;-83
2024/01/09 05:07:27;;;;;;;8.68;2.92;;;;;;;;;;4937124;29;20051;-83
2024/01/09 05:09:58;;;;;;;9.15;2.70;;;;;;;;;;4954521;29;20047;-83
2024/01/09 05:12:28;;;;;;;7.72;2.47;;;;;;;;;;4955141;29;20058;-84
2024/01/09 05:14:58;;;;;;;10.40;3.20;;;;;;;;;;4938690;29;20047;-84
2024/01/09 05:17:28;;;;;;;8.32;2.95;;;;;;;;;;4938131;29;20514;-84
2024/01/09 05:19:57;;;;;;;8.15;2.83;;;;;;;;;;4955208;29;20058;-84
2024/01/09 05:22:33;;;;;;;9.15;2.88;;;;;;;;;;4937782;29;20054;-84
2024/01/09 05:25:04;;;;;;;8.05;2.80;;;;;;;;;;4938515;29;20047;-84
2024/01/09 05:27:35;;;;;;;10.55;3.00;;;;;;;;;;4938655;29;20055;-84
2024/01/09 05:30:08;;;;;;;7.47;2.80;;;;;;;;;;4954679;29;20414;-84
2024/01/09 05:32:39;;;;;;;8.73;2.70;;;;;;;;;;4921269;29;20047;-84
2024/01/09 05:35:10;;;;;;;9.05;3.00;;;;;;;;;;4936906;29;20051;-84
2024/01/09 05:37:41;;;;;;;7.43;3.08;;;;;;;;;;4954493;29;20047;-84
2024/01/09 05:40:11;;;;;;;8.80;3.00;;;;;;;;;;4921390;29;20051;-84
2024/01/09 05:42:43;;;;;;;9.23;3.30;;;;;;;;;;4954969;29;20047;-83
2024/01/09 05:45:14;;;;;;;6.60;3.00;;;;;;;;;;4954824;28;20494;-84
2024/01/09 05:47:45;;;;;;;7.32;2.85;;;;;;;;;;4941639;29;20419;-84
2024/01/09 05:50:18;;;;;;;7.72;2.88;;;;;;;;;;4925138;29;20062;-83
2024/01/09 05:52:48;;;;;;;15.27;3.45;;;;;;;;;;4941314;29;20051;-83
2024/01/09 05:55:18;;;;;;;8.52;2.67;;;;;;;;;;4940461;29;20058;-84
2024/01/09 05:57:47;;;;;;;9.27;2.97;;;;;;;;;;4957901;29;20070;-83
2024/01/09 06:00:18;;;;;;;8.10;2.90;;;;;;;;;;4941557;29;20055;-84
2024/01/09 06:02:48;;;;;;;12.45;3.00;;;;;;;;;;4941686;29;20390;-84
2024/01/09 06:05:20;;;;;;;12.38;4.45;;;;;;;;;;4927007;29;20407;-84
2024/01/09 06:07:51;;;;;;;7.78;3.42;;;;;;;;;;4964677;29;20051;-84
2024/01/09 06:10:21;;;;;;;7.63;3.20;;;;;;;;;;4946892;29;20055;-84
2024/01/09 06:12:51;;;;;;;8.15;3.22;;;;;;;;;;4947834;29;20047;-83
2024/01/09 06:15:24;;;;;;;8.95;3.10;;;;;;;;;;4942703;29;20051;-84
2024/01/09 06:17:54;;;;;;;10.30;3.33;;;;;;;;;;4943613;28;20035;-83
2024/01/09 06:20:25;;;;;;;6.40;2.88;;;;;;;;;;4948511;28;20067;-84
2024/01/09 06:22:54;;;;;;;10.77;3.75;;;;;;;;;;4931098;29;20047;-85
2024/01/09 06:25:25;;;;;;;10.90;3.10;;;;;;;;;;4930105;29;20043;-84
2024/01/09 06:27:56;;;;;;;15.00;3.97;;;;;;;;;;4947422;29;20043;-84
2024/01/09 06:30:26;;;;;;;9.70;3.03;;;;;;;;;;4946172;29;20047;-83
2024/01/09 06:32:56;;;;;;;11.63;3.40;;;;;;;;;;4946737;29;20042;-83
2024/01/09 06:35:26;;;;;;;14.00;3.90;;;;;;;;;;4948128;29;20054;-84
2024/01/09 06:37:56;;;;;;;9.73;3.15;;;;;;;;;;4914614;29;20055;-84
2024/01/09 06:40:27;;;;;;;10.02;3.63;;;;;;;;;;4928112;29;20055;-84
2024/01/09 06:42:58;;;;;;;11.68;3.67;;;;;;;;;;4928999;29;20149;-84
2024/01/09 06:45:28;;;;;;;12.55;3.80;;;;;;;;;;4930736;29;20415;-83
2024/01/09 06:47:59;;;;;;;9.50;3.67;;;;;;;;;;4919445;29;20051;-84
2024/01/09 06:50:29;;;;;;;12.93;3.67;;;;;;;;;;4917997;29;20048;-84
2024/01/09 06:53:07;;;;;;;7.78;3.72;;;;;;;;;;4920293;29;20056;-84
2024/01/09 06:55:37;;;;;;;12.13;3.72;;;;;;;;;;4919663;29;20055;-83
2024/01/09 06:58:07;;;;;;;8.48;3.33;;;;;;;;;;4919529;29;20052;-84
2024/01/09 07:00:37;;;;;;;7.93;3.50;;;;;;;;;;4905079;29;20082;-84
2024/01/09 07:03:07;;;;;;;13.68;3.83;;;;;;;;;;4920041;29;20051;-83
2024/01/09 07:05:38;;;;;;;9.18;3.42;;;;;;;;;;4920451;29;20052;-84
2024/01/09 07:08:09;;;;;;;13.80;4.07;;;;;;;;;;4917875;29;20044;-84
2024/01/09 07:10:39;;;;;;;12.15;4.03;;;;;;;;;;4935163;29;20043;-83
2024/01/09 07:13:10;;;;;;;9.55;3.97;;;;;;;;;;4935613;29;20056;-83
2024/01/09 07:15:41;;;;;;;9.20;3.80;;;;;;;;;;4935039;29;20054;-84
2024/01/09 07:18:11;;;;;;;11.57;3.72;;;;;;;;;;4934961;29;20070;-85
2024/01/09 07:20:42;;;;;;;13.25;3.67;;;;;;;;;;4935875;29;20055;-84
2024/01/09 07:23:14;;;;;;;11.70;3.50;;;;;;;;;;4956911;29;20054;-83
2024/01/09 07:25:48;;;;;;;15.10;3.55;;;;;;;;;;4938710;29;20132;-84
2024/01/09 07:28:20;;;;;;;9.73;2.90;;;;;;;;;;4940314;29;20054;-83
2024/01/09 07:30:52;;;;;;;10.98;3.10;;;;;;;;;;4923136;29;20055;-83
2024/01/09 07:33:23;;;;;;;10.27;4.53;;;;;;;;;;4939374;29;20051;-84
2024/01/09 07:35:53;;;;;;;8.25;2.63;;;;;;;;;;4956751;29;20055;-83
2024/01/09 07:38:24;;;;;;;6.65;2.70;;;;;;;;;;4923199;29;20056;-83
2024/01/09 07:40:55;;;;;;;5.63;2.38;;;;;;;;;;4956374;29;20050;-84
2024/01/09 07:43:29;;;;;;;6.47;2.95;;;;;;;;;;4940460;29;20066;-84
2024/01/09 07:46:00;;;;;;;6.60;2.50;;;;;;;;;;4939708;29;20055;-85
2024/01/09 07:48:31;;;;;;;12.48;2.78;;;;;;;;;;4956270;29;20050;-84
2024/01/09 07:51:02;;;;;;;;;;;;;;;;;;4957220;29;20047;-84
2024/01/09 07:53:32;;;;;;;9.63;3.42;;;;;;;;;;4956315;29;20293;-83
2024/01/09 07:56:12;;;;;;;8.93;2.97;;;;;;;;;;4939970;29;20047;-84
2024/01/09 07:58:43;;;;;;;7.25;2.45;;;;;;;;;;4956126;29;20043;-83
2024/01/09 08:01:13;;;;;;;8.88;2.80;;;;;;;;;;4956316;29;20051;-83
2024/01/09 08:03:44;;;;;;;9.18;2.92;;;;;;;;;;4956080;29;20047;-83
2024/01/09 08:06:15;;;;;;;7.97;2.75;;;;;;;;;;4938262;29;20059;-83
2024/01/09 08:08:46;;;;;;;11.98;2.60;;;;;;;;;;4955991;28;20048;-84
2024/01/09 08:11:19;;;;;;;6.32;2.50;;;;;;;;;;4971029;28;20038;-83
2024/01/09 08:13:50;;;;;;;7.53;2.92;;;;;;;;;;4975544;28;20042;-82
2024/01/09 08:16:20;;;;;;;10.35;2.97;;;;;;;;;;4958164;28;20047;-83
2024/01/09 08:18:50;;;;;;;7.57;2.70;;;;;;;;;;4956450;28;20489;-82
2024/01/09 08:21:21;;;;;;;11.27;3.33;;;;;;;;;;4975293;28;20046;-83
2024/01/09 08:23:51;;;;;;;7.22;2.72;;;;;;;;;;4975096;28;20153;-83
2024/01/09 08:26:22;;;;;;;8.73;2.63;;;;;;;;;;4956850;28;20047;-82
2024/01/09 08:28:52;;;;;;;9.88;2.60;;;;;;;;;;4957950;28;20054;-83
2024/01/09 08:31:22;;;;;;;7.47;3.35;;;;;;;;;;4950468;28;20414;-84
2024/01/09 08:33:52;;;;;;;10.93;2.83;;;;;;;;;;4956394;28;20050;-83
2024/01/09 08:36:22;;;;;;;7.38;3.38;;;;;;;;;;4945455;29;20047;-83
2024/01/09 08:38:52;;;;;;;9.25;3.05;;;;;;;;;;4954729;29;20046;-83
2024/01/09 08:41:23;;;;;;;7.28;2.65;;;;;;;;;;4970230;28;20043;-83
2024/01/09 08:43:53;;;;;;;8.30;2.65;;;;;;;;;;4928020;28;20061;-83
2024/01/09 08:46:23;;;;;;;7.68;2.97;;;;;;;;;;4963278;28;20047;-83
2024/01/09 08:48:54;;;;;;;11.43;2.80;;;;;;;;;;4937907;29;20051;-83
2024/01/09 08:51:24;;;;;;;6.28;2.90;;;;;;;;;;4938681;29;20055;-83
2024/01/09 08:53:57;;;;;;;13.68;3.60;;;;;;;;;;4938856;29;20052;-83
2024/01/09 08:56:27;;;;;;;10.32;3.58;;;;;;;;;;4921417;29;20066;-83
2024/01/09 08:58:58;;;;;;;13.48;3.75;;;;;;;;;;4937072;29;20059;-83
2024/01/09 09:01:30;;;;;;;15.43;4.38;;;;;;;;;;4937726;29;20074;-83
2024/01/09 09:04:01;;;;;;;15.02;4.57;;;;;;;;;;4955716;29;20107;-84
2024/01/09 09:06:32;;;;;;;18.20;4.82;;;;;;;;;;4937399;29;20063;-83
2024/01/09 09:09:02;;;;;;;10.15;3.40;;;;;;;;;;4922303;29;20051;-83
2024/01/09 09:11:32;;;;;;;12.60;3.50;;;;;;;;;;4955121;29;20050;-83
2024/01/09 09:14:03;;;;;;;9.15;3.13;;;;;;;;;;4938533;29;20047;-83
2024/01/09 09:16:35;;;;;;;8.23;2.60;;;;;;;;;;4937574;29;20055;-84
2024/01/09 09:19:08;;;;;;;7.50;2.63;;;;;;;;;;4954967;29;20059;-85
2024/01/09 09:21:38;;;;;;;5.20;2.20;;;;;;;;;;4939485;29;20055;-83
2024/01/09 09:24:09;;;;;;;6.45;2.45;;;;;;;;;;4942028;29;20514;-83
2024/01/09 09:26:39;;;;;;;8.73;2.38;;;;;;;;;;4958852;29;20375;-84
2024/01/09 09:29:12;;;;;;;9.13;2.50;;;;;;;;;;4942494;29;20047;-86
2024/01/09 09:32:00;;;;;;;12.90;2.45;;;;;;;;;;4941479;29;20051;-85
2024/01/09 09:34:30;;;;;;;6.05;2.33;;;;;;;;;;4941275;29;20055;-83
2024/01/09 09:37:00;;;;;;;10.02;2.30;;;;;;;;;;4941619;29;20054;-84
2024/01/09 09:39:31;;;;;;;7.57;2.40;;;;;;;;;;4941213;29;20078;-84
2024/01/09 09:42:01;;;;;;;8.93;2.58;;;;;;;;;;4958213;29;20051;-83
2024/01/09 09:44:34;;;;;;;11.75;2.50;;;;;;;;;;4958624;29;20471;-83
2024/01/09 09:47:06;;;;;;;8.43;2.67;;;;;;;;;;4942091;29;20399;-83
2024/01/09 09:49:38;;;;;;;10.02;2.17;;;;;;;;;;4941774;29;20043;-83
2024/01/09 09:52:09;;;;;;;8.25;2.10;;;;;;;;;;4958493;29;20051;-83
2024/01/09 09:54:40;;;;;;;10.02;3.55;;;;;;;;;;4941784;29;20047;-83
2024/01/09 09:57:11;;;;;;;6.18;2.42;;;;;;;;;;4958532;29;20066;-84
2024/01/09 09:59:42;;;;;;;5.68;2.38;;;;;;;;;;4940836;29;20066;-85
2024/01/09 10:02:26;;;;;;;7.07;2.28;;;;;;;;;;4958500;29;20047;-84
2024/01/09 10:05:03;;;;;;;10.25;2.40;;;;;;;;;;4940843;29;20051;-83
2024/01/09 10:07:37;;;;;;;4.97;2.20;;;;;;;;;;4957504;29;20054;-83
2024/01/09 10:10:11;;;;;;;8.35;2.00;;;;;;;;;;4957868;29;20055;-83
2024/01/09 10:12:41;;;;;;;8.65;2.60;;;;;;;;;;4941574;29;20047;-83
2024/01/09 10:15:13;;;;;;;7.82;2.30;;;;;;;;;;4957903;29;20067;-83
2024/01/09 10:17:44;;;;;;;6.43;2.30;;;;;;;;;;4958586;29;20039;-82
2024/01/09 10:20:15;;;;;;;8.55;1.80;;;;;;;;;;4957866;29;20399;-82
2024/01/09 10:22:46;;;;;;;5.50;2.15;;;;;;;;;;4940467;29;20055;-82
2024/01/09 10:25:17;;;;;;;7.15;2.28;;;;;;;;;;4957497;29;20046;-82
2024/01/09 10:27:48;;;;;;;4.40;2.00;;;;;;;;;;4940437;29;20135;-82
2024/01/09 10:30:20;;;;;;;6.68;2.05;;;;;;;;;;4957700;29;20039;-82
2024/01/09 10:32:52;;;;;;;7.63;1.98;;;;;;;;;;4940529;29;20050;-82
2024/01/09 10:35:22;;;;;;;11.35;2.30;;;;;;;;;;4957478;29;20043;-82
2024/01/09 10:37:53;;;;;;;7.95;2.50;;;;;;;;;;4957804;29;20047;-83
2024/01/09 10:40:26;;;;;;;5.68;2.00;;;;;;;;;;4957776;29;20494;-82
2024/01/09 10:42:57;;;;;;;3.92;2.40;;;;;;;;;;4961674;28;20387;-82
2024/01/09 10:45:28;;;;;;;3.45;1.60;;;;;;;;;;4977051;28;20046;-82
2024/01/09 10:47:58;;;;;;;5.80;1.60;;;;;;;;;;4959015;28;20055;-82
2024/01/09 10:50:29;;;;;;;5.03;1.85;;;;;;;;;;4976708;28;20053;-82
2024/01/09 10:52:59;;;;;;;3.58;2.05;;;;;;;;;;4975013;28;20050;-85
2024/01/09 10:55:31;;;;;;;5.75;1.70;;;;;;;;;;4944885;28;20047;-85
2024/01/09 10:58:03;;;;;;;6.95;2.30;;;;;;;;;;4947426;28;20050;-85
2024/01/09 11:00:36;;;;;;;6.35;2.10;;;;;;;;;;4958461;28;20043;-84
2024/01/09 11:03:11;;;;;;;6.80;1.60;;;;;;;;;;4973435;28;20057;-84
2024/01/09 11:05:41;;;;;;;5.38;1.70;;;;;;;;;;4958522;28;20050;-84
2024/01/09 11:08:17;;;;;;;3.72;1.92;;;;;;;;;;4943441;28;20076;-84
2024/01/09 11:10:52;;;;;;;7.60;1.75;;;;;;;;;;4956787;28;20483;-85
2024/01/09 11:13:24;;;;;;;4.47;1.83;;;;;;;;;;4957156;29;20047;-84
2024/01/09 11:15:55;;;;;;;3.67;1.98;;;;;;;;;;4940543;29;20383;-85
2024/01/09 11:18:27;;;;;;;3.85;1.63;;;;;;;;;;4956841;29;20043;-86
2024/01/09 11:21:02;;;;;;;2.50;1.38;;;;;;;;;;4923876;29;20062;-86
2024/01/09 11:24:02;;;;;;;3.67;2.03;;;;;;;;;;4939087;29;20051;-85
2024/01/09 11:26:37;;;;;;;6.88;2.20;;;;;;;;;;4957023;29;20055;-86
2024/01/09 11:29:08;;;;;;;5.97;2.08;;;;;;;;;;4957114;29;20047;-86
2024/01/09 11:31:40;;;;;;;11.25;3.70;;;;;;;;;;4938821;29;20051;-86
2024/01/09 11:34:26;;;;;;;4.55;1.83;;;;;;;;;;4938680;29;20055;-86
2024/01/09 11:36:57;;;;;;;7.90;2.22;;;;;;;;;;4923874;29;20054;-86
2024/01/09 11:39:29;;;;;;;9.52;6.95;;;;;;;;;;4943049;28;20058;-83
2024/01/09 11:42:01;;;;;;;6.07;4.13;;;;;;;;;;4950767;28;20062;-83
2024/01/09 11:44:31;;;;;;;5.38;2.03;;;;;;;;;;4946276;28;20059;-84
2024/01/09 11:47:02;;;;;;;3.00;1.60;;;;;;;;;;4964404;28;20047;-83
2024/01/09 11:49:32;;;;;;;5.35;1.98;;;;;;;;;;4962558;28;20043;-83
2024/01/09 11:52:04;;;;;;;8.90;2.05;;;;;;;;;;4965940;28;20043;-83
2024/01/09 11:54:34;;;;;;;;;;;;;;;;;;4965825;28;20058;-84
2024/01/09 11:57:04;;;;;;;6.72;1.50;;;;;;;;;;4941850;28;19929;-85
2024/01/09 11:59:35;;;;;;;7.70;1.52;;;;;;;;;;4968828;28;20057;-88
2024/01/09 12:02:09;;;;;;;4.30;1.58;;;;;;;;;;4943031;28;20058;-84
2024/01/09 12:04:42;;;;;;;4.65;1.95;;;;;;;;;;4948307;28;20054;-86
2024/01/09 12:07:13;;;;;;;6.25;1.40;;;;;;;;;;4938790;28;20514;-86
2024/01/09 12:09:43;;;;;;;11.75;2.10;;;;;;;;;;4930141;29;20418;-86
2024/01/09 12:12:22;;;;;;;2.67;1.60;;;;;;;;;;4924357;29;20059;-86
2024/01/09 12:14:55;;;;;;;6.03;1.60;;;;;;;;;;4938361;29;20058;-87
2024/01/09 12:17:52;;;;;;;4.47;1.50;;;;;;;;;;4938020;29;20146;-86
2024/01/09 12:20:20;;;;;;;5.28;1.65;;;;;;;;;;4937718;29;20058;-87
2024/01/09 12:22:54;;;;;;;4.55;2.20;;;;;;;;;;4938547;29;20530;-86
2024/01/09 12:25:25;;;;;;;5.45;1.60;;;;;;;;;;4941901;28;20065;-85
2024/01/09 12:27:57;;;;;;;5.88;2.40;;;;;;;;;;4949458;28;20043;-87
2024/01/09 12:30:28;;;;;;;4.40;1.90;;;;;;;;;;4958653;28;20046;-86
2024/01/09 12:32:59;;;;;;;2.65;1.48;;;;;;;;;;4956656;28;20070;-85
2024/01/09 12:35:30;;;;;;;2.90;1.58;;;;;;;;;;4955687;28;20043;-86
2024/01/09 12:38:00;;;;;;;3.20;1.35;;;;;;;;;;4955747;28;20054;-87
2024/01/09 12:40:57;;;;;;;4.28;1.48;;;;;;;;;;4941219;28;20062;-87
2024/01/09 12:43:28;;;;;;;7.38;1.70;;;;;;;;;;4953041;28;20047;-85
2024/01/09 12:46:01;;;;;;;2.92;1.33;;;;;;;;;;4956667;28;20054;-85
2024/01/09 12:51:32;;;;;;;3.67;1.65;;;;;;;;;;4955382;28;19921;-87
2024/01/09 12:54:02;;;;;;;4.40;1.25;;;;;;;;;;4940848;28;20046;-90
2024/01/09 12:56:34;;;;;;;4.63;1.20;;;;;;;;;;4934533;28;20058;-86
2024/01/09 12:59:05;;;;;;;2.60;1.20;;;;;;;;;;4955747;28;20050;-87
2024/01/09 13:02:00;;;;;;;3.33;1.45;;;;;;;;;;4957706;28;20157;-88
2024/01/09 13:04:33;;;;;;;4.82;1.52;;;;;;;;;;4958559;28;20066;-89
2024/01/09 13:07:04;;;;;;;3.40;1.38;;;;;;;;;;5104926;23;20055;-88
2024/01/09 13:09:34;;;;;;;2.92;1.30;;;;;;;;;;4941985;28;20058;-88
2024/01/09 13:12:06;;;;;;;2.88;1.77;;;;;;;;;;4957715;28;20046;-87
2024/01/09 13:14:40;;;;;;;7.25;1.52;;;;;;;;;;4941431;28;20076;-88
2024/01/09 13:17:13;;;;;;;4.15;1.50;;;;;;;;;;4957181;28;20047;-87
2024/01/09 13:19:43;;;;;;;2.90;1.25;;;;;;;;;;4941141;28;20500;-88
2024/01/09 13:22:13;;;;;;;2.67;1.20;;;;;;;;;;4957452;28;20062;-87
2024/01/09 13:24:46;;;;;;;5.95;1.45;;;;;;;;;;4957958;28;20050;-89
2024/01/09 13:27:18;;;;;;;4.68;1.23;;;;;;;;;;4974785;28;20393;-89
2024/01/09 13:29:49;;;;;;;2.95;1.30;;;;;;;;;;4957016;28;20047;-87
2024/01/09 13:32:23;;;;;;;1.83;1.10;;;;;;;;;;4957030;28;20058;-85
2024/01/09 13:34:53;;;;;;;4.00;1.50;;;;;;;;;;4956281;28;20046;-88
2024/01/09 13:37:23;;;;;;;9.10;1.70;;;;;;;;;;4957453;28;20055;-86
2024/01/09 13:39:56;;;;;;;2.40;1.40;;;;;;;;;;4941458;28;20062;-89
2024/01/09 13:42:27;;;;;;;6.82;1.52;;;;;;;;;;4943849;28;20131;-90
2024/01/09 13:44:58;;;;;;;;;;;;;;;;;;4949222;28;20047;-90
2024/01/09 13:47:27;;;;;;;3.55;1.33;;;;;;;;;;4965555;28;19922;-89
2024/01/09 13:49:58;;;;;;;1.95;1.10;;;;;;;;;;4982834;28;20062;-89
2024/01/09 13:52:31;;;;;;;2.55;1.35;;;;;;;;;;4965885;28;20514;-89
2024/01/09 13:58:35;;;;;;;4.05;1.13;;;;;;;;;;4992112;28;20059;-88
2024/01/09 14:01:06;;;;;;;4.07;1.30;;;;;;;;;;4962287;28;20043;-87
2024/01/09 14:03:36;;;;;;;3.70;1.10;;;;;;;;;;4976873;28;20042;-86
2024/01/09 14:06:06;;;;;;;5.57;1.20;;;;;;;;;;4970764;28;20482;-90
2024/01/09 14:08:38;;;;;;;2.80;1.00;;;;;;;;;;4968895;28;20051;-85
2024/01/09 14:11:56;;;;;;;4.60;1.30;;;;;;;;;;4974842;28;20038;-85
2024/01/09 14:14:27;;;;;;;3.28;1.10;;;;;;;;;;4960730;28;20050;-83
2024/01/09 14:16:57;;;;;;;3.88;1.10;;;;;;;;;;4958764;28;20057;-81
2024/01/09 14:19:30;;;;;;;4.28;1.27;;;;;;;;;;4975918;28;20050;-86
2024/01/09 14:22:01;;;;;;;4.22;1.00;;;;;;;;;;4957653;28;20446;-88
2024/01/09 14:24:32;;;;;;;2.67;0.95;;;;;;;;;;4958602;28;20055;-84
2024/01/09 14:27:03;;;;;;;2.85;1.65;;;;;;;;;;4960077;28;20386;-84
2024/01/09 14:29:33;;;;;;;4.82;1.38;;;;;;;;;;4977507;28;20070;-86
2024/01/09 14:33:07;;;;;;;4.00;1.25;;;;;;;;;;4944232;28;20127;-86
2024/01/09 14:35:43;;;;;;;5.30;1.20;;;;;;;;;;4958946;28;20061;-92
2024/01/09 14:38:15;;;;;;;3.22;1.17;;;;;;;;;;4963535;28;20387;-89
2024/01/09 14:40:48;;;;;;;4.35;1.00;;;;;;;;;;4959708;28;20057;-91
2024/01/09 14:43:26;;;;;;;5.28;0.93;;;;;;;;;;4903290;29;20075;-88
2024/01/09 14:45:56;;;;;;;5.95;1.00;;;;;;;;;;4904887;29;20064;-87
2024/01/09 14:48:27;;;;;;;4.00;1.20;;;;;;;;;;4902897;29;20056;-88
2024/01/09 14:51:02;;;;;;;2.20;1.13;;;;;;;;;;4903929;29;20056;-86
2024/01/09 14:53:32;;;;;;;2.40;1.20;;;;;;;;;;4896293;29;20160;-86
2024/01/09 14:56:02;;;;;;;5.00;1.20;;;;;;;;;;4912676;29;20523;-90
2024/01/09 14:58:36;;;;;;;3.70;1.15;;;;;;;;;;4889849;29;20381;-88
2024/01/09 15:01:07;;;;;;;4.63;1.13;;;;;;;;;;4887971;29;20063;-87
2024/01/09 15:03:42;;;;;;;1.95;1.00;;;;;;;;;;4884099;29;20044;-89
2024/01/09 15:06:13;;;;;;;4.70;1.20;;;;;;;;;;4897885;29;20048;-89
2024/01/09 15:08:56;;;;;;;3.50;0.90;;;;;;;;;;4901907;29;20052;-86
2024/01/09 15:11:28;;;;;;;4.25;1.20;;;;;;;;;;4900204;29;20056;-86
2024/01/09 15:13:58;;;;;;;3.97;1.10;;;;;;;;;;4900135;29;20056;-85
2024/01/09 15:16:29;;;;;;;5.05;1.60;;;;;;;;;;4900834;29;20052;-87
2024/01/09 15:19:00;;;;;;;5.90;1.20;;;;;;;;;;4898813;29;20485;-84